Pleasant City, Ohio
Current Conditions -  °F | °C
As of 11:05 PM on Sunday 23 Nov 2014 (Local Time) from KZZV Reporting Station
Overcast Overcast  
Wind Chill: 53°   Ceiling: 3200
Heat Index: 53°   Visibility: 10mi
Dew Point: 51°   Wind: 14mph
Humidity: 93%   Direction: 130°SE
Pressure: 29.41"   Gusts: NA
Location:  39.9°N, 81.55°W
Report Text: KZZV 240405Z AUTO 13012KT 10SM SCT010 BKN032 OVC085 12/11 A2941 RMK AO2 RAE02 PRESFR P0000 T01170106
Loading
Personal Weather Stations






























Interactive Weather Map New forecast layout! Learn more

10-Day Weather Forecast

Advertisements
Track Severe Weather on mobile